createdAt,value
2023-02-11T00:01:07.988Z,102387.00
2023-02-11T00:03:38.662Z,102395.00
2023-02-11T00:06:09.182Z,102392.31
2023-02-11T00:08:36.891Z,102396.81
2023-02-11T00:11:04.975Z,102402.19
2023-02-11T00:13:32.656Z,102384.47
2023-02-11T00:16:00.888Z,102402.69
2023-02-11T00:18:29.112Z,102393.97
2023-02-11T00:20:58.004Z,102381.66
2023-02-11T00:23:25.544Z,102380.78
2023-02-11T00:25:53.172Z,102380.16
2023-02-11T00:28:20.787Z,102375.59
2023-02-11T00:30:55.662Z,102391.78
2023-02-11T00:33:23.226Z,102392.63
2023-02-11T00:35:51.198Z,102391.31
2023-02-11T00:38:20.208Z,102395.78
2023-02-11T00:40:47.925Z,102394.47
2023-02-11T00:43:15.385Z,102386.94
2023-02-11T00:45:42.890Z,102390.13
2023-02-11T00:48:10.478Z,102386.09
2023-02-11T00:50:38.064Z,102383.44
2023-02-11T00:53:05.690Z,102383.94
2023-02-11T00:55:35.544Z,102372.78
2023-02-11T00:58:03.408Z,102377.94
2023-02-11T01:00:31.390Z,102387.09
2023-02-11T01:02:58.913Z,102369.41
2023-02-11T01:05:26.640Z,102359.44
2023-02-11T01:07:54.211Z,102364.91
2023-02-11T01:10:21.974Z,102358.38
2023-02-11T01:12:50.902Z,102348.91
2023-02-11T01:15:20.244Z,102353.56
2023-02-11T01:17:47.794Z,102341.38
2023-02-11T01:20:18.445Z,102349.06
2023-02-11T01:22:46.020Z,102332.03
2023-02-11T01:25:14.432Z,102338.22
2023-02-11T01:27:41.970Z,102332.50
2023-02-11T01:30:13.899Z,102332.16
2023-02-11T01:32:41.535Z,102315.63
2023-02-11T01:35:09.503Z,102323.19
2023-02-11T01:37:37.260Z,102324.63
2023-02-11T01:40:06.235Z,102314.66
2023-02-11T01:42:33.968Z,102318.69
2023-02-11T01:45:01.855Z,102308.63
2023-02-11T01:47:30.740Z,102299.78
2023-02-11T01:50:00.376Z,102298.63
2023-02-11T01:52:32.297Z,102302.31
2023-02-11T01:55:19.520Z,102299.34
2023-02-11T01:57:49.973Z,102293.59
2023-02-11T02:00:20.324Z,102300.13
2023-02-11T02:02:54.256Z,102303.09
2023-02-11T02:05:25.865Z,102307.59
2023-02-11T02:08:00.298Z,102304.50
2023-02-11T02:10:29.150Z,102298.31
2023-02-11T02:12:56.806Z,102307.16
2023-02-11T02:15:26.801Z,102294.31
2023-02-11T02:18:10.238Z,102298.09
2023-02-11T02:21:12.597Z,102294.75
2023-02-11T02:23:59.027Z,102297.28
2023-02-11T03:29:11.945Z,102247.00
2023-02-11T03:36:17.670Z,102254.50
2023-02-11T04:22:40.120Z,102218.69
2023-02-11T04:25:08.864Z,102220.63
2023-02-11T04:27:36.545Z,102221.94
2023-02-11T04:30:04.989Z,102239.03
2023-02-11T04:32:32.576Z,102241.66
2023-02-11T04:35:00.155Z,102240.81
2023-02-11T04:37:27.688Z,102233.94
2023-02-11T04:39:56.622Z,102242.97
2023-02-11T04:42:24.488Z,102244.97
2023-02-11T04:44:52.206Z,102244.91
2023-02-11T04:47:19.894Z,102236.59
2023-02-11T04:49:47.573Z,102236.03
2023-02-11T04:52:15.286Z,102231.44
2023-02-11T04:54:42.907Z,102237.41
2023-02-11T04:57:12.206Z,102234.56
2023-02-11T04:59:40.800Z,102229.03
2023-02-11T05:02:08.602Z,102224.16
2023-02-11T05:04:36.193Z,102219.50
2023-02-11T05:07:03.778Z,102226.41
2023-02-11T05:09:31.171Z,102223.44
2023-02-11T05:17:38.485Z,102217.63
2023-02-11T05:20:07.236Z,102222.44
2023-02-11T05:27:57.989Z,102213.94
2023-02-11T05:30:26.808Z,102213.72
2023-02-11T05:35:30.836Z,102215.06
2023-02-11T05:37:58.466Z,102217.75
2023-02-11T05:40:25.926Z,102215.19
2023-02-11T05:42:53.447Z,102212.88
2023-02-11T05:45:20.819Z,102203.31
2023-02-11T05:47:48.265Z,102204.31
2023-02-11T05:50:15.972Z,102207.50
2023-02-11T05:52:44.857Z,102203.47
2023-02-11T05:55:12.530Z,102192.06
2023-02-11T05:57:39.963Z,102202.56
2023-02-11T06:00:08.427Z,102200.75
2023-02-11T06:02:36.034Z,102205.97
2023-02-11T06:05:03.661Z,102205.13
2023-02-11T06:07:31.176Z,102210.00
2023-02-11T06:10:00.221Z,102195.75
2023-02-11T06:12:28.087Z,102196.75
2023-02-11T06:14:55.580Z,102185.16
2023-02-11T06:17:23.340Z,102173.50
2023-02-11T06:19:50.828Z,102185.78
2023-02-11T06:22:18.495Z,102183.84
2023-02-11T06:25:00.450Z,102183.13
2023-02-11T06:27:31.065Z,102188.84
2023-02-11T06:29:58.626Z,102185.16
2023-02-11T06:32:45.212Z,102192.50
2023-02-11T06:35:14.134Z,102190.31
2023-02-11T06:37:42.170Z,102182.47
2023-02-11T06:40:10.833Z,102180.94
2023-02-11T06:42:39.856Z,102186.72
2023-02-11T06:45:09.359Z,102189.03
2023-02-11T06:47:36.883Z,102183.03
2023-02-11T06:50:07.845Z,102188.56
2023-02-11T06:52:35.382Z,102202.31
2023-02-11T06:55:03.058Z,102192.63
2023-02-11T06:57:31.421Z,102193.66
2023-02-11T07:00:00.384Z,102192.38
2023-02-11T07:02:27.898Z,102191.69
2023-02-11T07:04:55.337Z,102191.16
2023-02-11T07:07:22.823Z,102181.00
2023-02-11T07:09:50.330Z,102184.63
2023-02-11T07:12:17.824Z,102184.06
2023-02-11T07:14:45.505Z,102204.16
2023-02-11T07:17:14.447Z,102200.75
2023-02-11T07:19:58.470Z,102210.50
2023-02-11T07:26:45.613Z,102221.59
2023-02-11T07:53:03.213Z,102225.16
2023-02-11T07:56:18.358Z,102228.69
2023-02-11T07:58:47.412Z,102241.34
2023-02-11T08:01:17.150Z,102247.69
2023-02-11T08:03:44.775Z,102245.13
2023-02-11T08:06:14.208Z,102248.50
2023-02-11T08:08:41.828Z,102244.50
2023-02-11T08:11:09.738Z,102249.84
2023-02-11T08:13:37.880Z,102248.66
2023-02-11T08:16:07.603Z,102256.78
2023-02-11T08:18:35.976Z,102274.56
2023-02-11T08:21:07.279Z,102263.69
2023-02-11T08:26:19.116Z,102269.53
2023-02-11T08:28:48.688Z,102264.97
2023-02-11T08:31:19.034Z,102267.66
2023-02-11T08:33:47.700Z,102270.50
2023-02-11T08:36:16.771Z,102269.22
2023-02-11T08:38:44.196Z,102287.78
2023-02-11T08:41:12.027Z,102287.03
2023-02-11T08:43:41.657Z,102288.53
2023-02-11T08:46:09.742Z,102293.31
2023-02-11T08:48:38.690Z,102303.28
2023-02-11T08:51:08.283Z,102305.50
2023-02-11T08:53:35.712Z,102315.34
2023-02-11T08:56:04.990Z,102324.78
2023-02-11T08:58:32.988Z,102311.13
2023-02-11T09:01:00.760Z,102310.38
2023-02-11T09:03:29.679Z,102313.81
2023-02-11T09:05:58.711Z,102301.63
2023-02-11T09:08:26.213Z,102313.81
2023-02-11T09:10:53.966Z,102311.97
2023-02-11T09:13:21.426Z,102321.47
2023-02-11T09:15:48.951Z,102316.56
2023-02-11T09:18:16.489Z,102320.16
2023-02-11T09:20:43.922Z,102323.28
2023-02-11T09:23:12.904Z,102325.25
2023-02-11T09:25:41.016Z,102329.66
2023-02-11T09:28:09.064Z,102318.22
2023-02-11T09:30:37.759Z,102327.47
2023-02-11T09:33:05.702Z,102323.69
2023-02-11T09:35:34.123Z,102332.72
2023-02-11T09:38:03.766Z,102324.50
2023-02-11T09:40:32.674Z,102313.91
2023-02-11T09:43:05.473Z,102325.53
2023-02-11T09:45:33.449Z,102333.00
2023-02-11T09:50:57.032Z,102335.03
2023-02-11T09:53:42.711Z,102340.66
2023-02-11T09:56:14.164Z,102335.97
2023-02-11T09:58:44.357Z,102351.19
2023-02-11T10:01:21.602Z,102347.59
2023-02-11T10:04:04.110Z,102352.66
2023-02-11T10:06:39.565Z,102343.88
2023-02-11T10:09:16.932Z,102338.75
2023-02-11T10:11:52.545Z,102343.06
2023-02-11T10:14:32.829Z,102334.50
2023-02-11T10:17:08.230Z,102337.81
2023-02-11T10:19:46.582Z,102344.56
2023-02-11T10:22:19.584Z,102358.56
2023-02-11T10:24:52.784Z,102365.13
2023-02-11T10:27:37.626Z,102363.13
2023-02-11T10:30:08.831Z,102365.22
2023-02-11T10:32:54.498Z,102367.44
2023-02-11T10:35:23.669Z,102349.44
2023-02-11T10:37:53.616Z,102354.34
2023-02-11T10:40:23.746Z,102350.66
2023-02-11T10:43:16.741Z,102352.47
2023-02-11T10:45:47.010Z,102340.66
2023-02-11T10:48:37.395Z,102344.44
2023-02-11T10:51:12.297Z,102342.16
2023-02-11T10:53:41.884Z,102351.28
2023-02-11T10:56:12.886Z,102348.88
2023-02-11T10:58:46.139Z,102350.00
2023-02-11T11:01:24.451Z,102362.38
2023-02-11T11:03:53.705Z,102371.97
2023-02-11T11:06:30.767Z,102364.03
2023-02-11T11:08:58.526Z,102382.75
2023-02-11T11:11:27.641Z,102369.84
2023-02-11T11:13:59.128Z,102383.97
2023-02-11T11:16:28.584Z,102363.28
2023-02-11T11:19:21.330Z,102374.38
2023-02-11T11:21:50.820Z,102374.00
2023-02-11T11:24:19.608Z,102362.81
2023-02-11T11:26:51.551Z,102376.66
2023-02-11T11:29:22.638Z,102370.28
2023-02-11T11:31:52.997Z,102360.88
2023-02-11T11:34:24.477Z,102382.41
2023-02-11T11:36:51.923Z,102381.00
2023-02-11T11:39:24.864Z,102388.84
2023-02-11T11:41:57.737Z,102384.78
2023-02-11T11:44:29.815Z,102391.00
2023-02-11T11:47:21.619Z,102402.25
2023-02-11T11:49:52.688Z,102387.28
2023-02-11T11:52:24.087Z,102386.53
2023-02-11T11:54:56.621Z,102398.56
2023-02-11T11:57:28.602Z,102389.22
2023-02-11T11:59:59.060Z,102394.22
2023-02-11T12:02:42.189Z,102399.19
2023-02-11T12:05:13.387Z,102391.16
2023-02-11T12:07:51.064Z,102385.53
2023-02-11T12:10:45.406Z,102387.56
2023-02-11T12:13:24.108Z,102379.09
2023-02-11T12:15:58.492Z,102383.06
2023-02-11T12:18:46.185Z,102391.34
2023-02-11T12:21:32.744Z,102383.31
2023-02-11T12:24:18.771Z,102389.97
2023-02-11T12:26:49.136Z,102380.91
2023-02-11T12:29:25.676Z,102374.72
2023-02-11T12:32:11.328Z,102371.13
2023-02-11T12:34:52.834Z,102386.09
2023-02-11T12:37:29.678Z,102366.16
2023-02-11T12:40:04.637Z,102369.44
2023-02-11T12:42:56.926Z,102365.38
2023-02-11T12:45:40.158Z,102384.69
2023-02-11T12:48:46.339Z,102383.88
2023-02-11T12:51:23.151Z,102371.03
2023-02-11T12:54:12.082Z,102383.38
2023-02-11T12:56:43.464Z,102383.38
2023-02-11T12:59:16.579Z,102398.19
2023-02-11T13:01:46.286Z,102395.84
2023-02-11T13:04:21.650Z,102400.50
2023-02-11T13:06:51.360Z,102395.03
2023-02-11T13:09:23.426Z,102398.19
2023-02-11T13:11:52.867Z,102392.53
2023-02-11T13:14:26.231Z,102390.88
2023-02-11T13:16:54.516Z,102373.34
2023-02-11T13:19:27.985Z,102377.84
2023-02-11T13:24:59.492Z,102380.81
2023-02-11T13:27:33.857Z,102376.19
2023-02-11T13:30:15.868Z,102383.38
2023-02-11T13:36:16.111Z,102372.69
2023-02-11T13:38:53.151Z,102378.97
2023-02-11T13:43:59.595Z,102380.25
2023-02-11T13:46:28.911Z,102372.41
2023-02-11T13:48:57.115Z,102372.00
2023-02-11T13:51:38.460Z,102380.03
2023-02-11T13:54:06.963Z,102384.88
2023-02-11T13:56:36.294Z,102386.88
2023-02-11T13:59:05.377Z,102385.13
2023-02-11T14:02:21.567Z,102395.69
2023-02-11T14:05:46.765Z,102386.69
2023-02-11T14:08:50.960Z,102396.78
2023-02-11T14:11:44.302Z,102408.03
2023-02-11T14:14:40.044Z,102408.13
2023-02-11T14:17:30.986Z,102410.81
2023-02-11T14:19:59.279Z,102402.31
2023-02-11T14:22:28.859Z,102414.69
2023-02-11T14:25:00.703Z,102399.28
2023-02-11T14:27:34.528Z,102425.41
2023-02-11T14:30:46.377Z,102425.41
2023-02-11T14:33:39.576Z,102434.00
2023-02-11T14:36:15.698Z,102426.53
2023-02-11T14:38:53.832Z,102422.91
2023-02-11T14:41:25.085Z,102433.63
2023-02-11T14:43:55.730Z,102444.91
2023-02-11T14:46:25.062Z,102457.09
2023-02-11T14:49:11.747Z,102440.19
2023-02-11T14:54:36.544Z,102450.00
2023-02-11T14:57:12.264Z,102454.50
2023-02-11T14:59:40.441Z,102460.81
2023-02-11T15:02:22.874Z,102474.28
2023-02-11T15:04:51.011Z,102486.03
2023-02-11T15:07:19.409Z,102488.38
2023-02-11T15:09:48.551Z,102492.78
2023-02-11T15:12:32.604Z,102488.91
2023-02-11T15:15:02.013Z,102484.75
2023-02-11T15:17:31.788Z,102494.63
2023-02-11T15:23:36.793Z,102498.34
2023-02-11T15:26:07.184Z,102499.72
2023-02-11T15:28:37.672Z,102507.75
2023-02-11T15:40:56.080Z,102516.34
2023-02-11T15:49:53.217Z,102523.22
2023-02-11T15:52:25.042Z,102521.88
2023-02-11T15:55:00.714Z,102531.53
2023-02-11T15:57:29.572Z,102531.25
2023-02-11T15:59:58.868Z,102529.78
2023-02-11T16:02:42.691Z,102538.53
2023-02-11T16:05:27.992Z,102533.28
2023-02-11T16:07:55.754Z,102542.13
2023-02-11T16:10:26.966Z,102537.44
2023-02-11T16:12:57.022Z,102538.91
2023-02-11T16:15:46.383Z,102554.72
2023-02-11T16:18:16.813Z,102547.94
2023-02-11T16:20:50.130Z,102544.81
2023-02-11T16:23:23.302Z,102551.38
2023-02-11T16:25:58.333Z,102544.19
2023-02-11T16:28:26.279Z,102543.34
2023-02-11T16:30:55.269Z,102547.50
2023-02-11T16:33:23.049Z,102547.41
2023-02-11T16:35:51.964Z,102557.28
2023-02-11T16:38:19.951Z,102568.03
2023-02-11T16:40:49.353Z,102576.53
2023-02-11T16:43:19.972Z,102582.91
2023-02-11T16:45:47.672Z,102591.78
2023-02-11T16:48:20.444Z,102584.56
2023-02-11T16:50:52.869Z,102585.13
2023-02-11T16:53:24.156Z,102592.63
2023-02-11T16:55:53.723Z,102592.78
2023-02-11T16:58:21.332Z,102605.94
2023-02-11T17:00:50.664Z,102601.28
2023-02-11T17:03:22.254Z,102603.72
2023-02-11T17:05:55.599Z,102609.91
2023-02-11T17:08:27.352Z,102614.69
2023-02-11T17:10:54.952Z,102620.06
2023-02-11T17:13:22.590Z,102622.03
2023-02-11T17:15:50.772Z,102624.22
2023-02-11T17:18:18.345Z,102639.03
2023-02-11T17:20:45.921Z,102632.75
2023-02-11T17:23:19.503Z,102640.97
2023-02-11T17:25:56.226Z,102655.41
2023-02-11T17:28:24.501Z,102649.31
2023-02-11T17:30:52.006Z,102649.84
2023-02-11T17:33:19.845Z,102657.81
2023-02-11T17:35:47.264Z,102648.47
2023-02-11T17:38:14.720Z,102650.34
2023-02-11T17:40:42.340Z,102653.81
2023-02-11T17:43:11.266Z,102657.88
2023-02-11T17:45:42.174Z,102660.66
2023-02-11T17:48:09.855Z,102663.34
2023-02-11T18:18:31.016Z,102688.97
2023-02-11T18:23:31.404Z,102701.75
2023-02-11T18:28:54.942Z,102710.69
2023-02-11T18:31:24.688Z,102710.94
2023-02-11T18:33:54.983Z,102710.22
2023-02-11T18:36:25.090Z,102709.22
2023-02-11T18:39:06.572Z,102712.06
2023-02-11T18:41:34.468Z,102716.88
2023-02-11T18:44:04.887Z,102721.25
2023-02-11T18:46:33.035Z,102723.94
2023-02-11T18:49:00.872Z,102725.00
2023-02-11T18:51:31.874Z,102724.84
2023-02-11T18:53:59.422Z,102719.84
2023-02-11T18:56:27.736Z,102719.75
2023-02-11T18:58:57.020Z,102737.28
2023-02-11T19:07:09.704Z,102726.31
2023-02-11T19:12:12.647Z,102738.72
2023-02-11T19:14:41.006Z,102740.00
2023-02-11T19:17:13.197Z,102741.69
2023-02-11T19:19:41.782Z,102733.53
2023-02-11T19:22:10.810Z,102736.31
2023-02-11T19:24:41.080Z,102730.22
2023-02-11T19:27:08.528Z,102736.16
2023-02-11T19:29:37.167Z,102740.94
2023-02-11T19:32:07.245Z,102751.44
2023-02-11T19:34:42.567Z,102754.63
2023-02-11T19:37:13.080Z,102757.66
2023-02-11T19:39:45.763Z,102750.53
2023-02-11T19:42:13.850Z,102752.75
2023-02-11T19:44:41.438Z,102753.88
2023-02-11T19:47:10.346Z,102763.41
2023-02-11T19:49:39.345Z,102771.63
2023-02-11T19:52:06.907Z,102777.91
2023-02-11T19:58:24.874Z,102776.06
2023-02-11T20:00:54.898Z,102767.00
2023-02-11T20:03:23.651Z,102767.47
2023-02-11T20:05:51.993Z,102769.25
2023-02-11T20:08:20.972Z,102760.84
2023-02-11T20:10:49.114Z,102770.09
2023-02-11T20:13:17.489Z,102784.59
2023-02-11T20:16:04.986Z,102776.84
2023-02-11T20:18:37.078Z,102779.84
2023-02-11T20:21:09.171Z,102787.97
2023-02-11T20:23:38.264Z,102783.03
2023-02-11T20:26:07.533Z,102786.41
2023-02-11T20:28:35.331Z,102783.69
2023-02-11T20:31:04.876Z,102791.34
2023-02-11T20:33:33.197Z,102795.72
2023-02-11T20:36:04.592Z,102800.97
2023-02-11T20:38:33.547Z,102803.06
2023-02-11T20:41:05.093Z,102806.84
2023-02-11T20:43:34.774Z,102798.22
2023-02-11T20:46:05.643Z,102810.31
2023-02-11T20:48:34.709Z,102810.38
2023-02-11T20:51:07.473Z,102815.72
2023-02-11T20:53:36.934Z,102807.66
2023-02-11T20:56:05.955Z,102806.75
2023-02-11T20:58:35.234Z,102817.06
2023-02-11T21:01:10.363Z,102817.78
2023-02-11T21:03:38.803Z,102806.97
2023-02-11T21:06:08.288Z,102803.38
2023-02-11T21:08:37.379Z,102811.31
2023-02-11T21:11:09.752Z,102814.59
2023-02-11T21:13:42.384Z,102815.25
2023-02-11T21:16:16.199Z,102825.03
2023-02-11T21:18:44.601Z,102830.00
2023-02-11T21:21:12.576Z,102835.56
2023-02-11T21:23:40.876Z,102839.75
2023-02-11T21:26:09.054Z,102836.00
2023-02-11T21:28:39.812Z,102840.13
2023-02-11T21:31:10.838Z,102837.78
2023-02-11T21:33:40.596Z,102849.53
2023-02-11T21:36:11.355Z,102852.38
2023-02-11T21:38:39.349Z,102863.59
2023-02-11T21:41:07.352Z,102858.75
2023-02-11T21:43:35.618Z,102865.63
2023-02-11T21:46:08.818Z,102861.03
2023-02-11T21:48:37.313Z,102869.38
2023-02-11T21:51:16.326Z,102873.06
2023-02-11T21:53:44.437Z,102872.19
2023-02-11T21:56:15.312Z,102874.13
2023-02-11T21:58:43.959Z,102871.69
2023-02-11T22:01:13.739Z,102890.19
2023-02-11T22:03:45.682Z,102889.63
2023-02-11T22:06:16.707Z,102889.63
2023-02-11T22:08:44.206Z,102894.09
2023-02-11T22:11:13.171Z,102895.13
2023-02-11T22:13:41.404Z,102899.25
2023-02-11T22:16:11.083Z,102891.72
2023-02-11T22:18:39.086Z,102903.94
2023-02-11T22:26:34.385Z,102899.13
2023-02-11T22:29:12.449Z,102902.69
2023-02-11T22:34:22.009Z,102921.34
2023-02-11T22:36:49.818Z,102922.28
2023-02-11T22:39:17.665Z,102922.38
2023-02-11T22:41:47.463Z,102920.97
2023-02-11T22:44:16.427Z,102923.59
2023-02-11T22:46:44.517Z,102922.59
2023-02-11T22:49:15.207Z,102920.28
2023-02-11T22:51:43.020Z,102932.28
2023-02-11T22:54:13.557Z,102928.38
2023-02-11T22:56:41.260Z,102944.66
2023-02-11T22:59:13.939Z,102941.28
2023-02-11T23:01:41.628Z,102950.31
2023-02-11T23:04:12.172Z,102950.53
2023-02-11T23:06:39.607Z,102954.78
2023-02-11T23:09:10.187Z,102950.13
2023-02-11T23:11:38.178Z,102952.06
2023-02-11T23:14:09.018Z,102955.44
2023-02-11T23:16:38.144Z,102958.25
2023-02-11T23:19:08.817Z,102969.84
2023-02-11T23:21:38.618Z,102969.47
2023-02-11T23:24:08.524Z,102961.94
2023-02-11T23:26:36.453Z,102967.00
2023-02-11T23:29:04.376Z,102963.66
2023-02-11T23:31:35.673Z,102964.72
2023-02-11T23:34:38.756Z,102966.78
2023-02-11T23:55:39.877Z,102987.28
2023-02-11T23:58:11.832Z,102989.38
